Terminal Aerodrome Forecast
Issued by NWS

Current Version | Previous Version | Text Only | Print | Product List | Glossary Off
Versions: 1 2 3 4 5 6 7 8 9 10 11 12 13 14 15 16 17 18 19 20 21 22 23 24 25

000
FTUS41 KRLX 091500 AAA
TAFCKB
TAF AMD
KCKB 091552Z 0916/1012 25010KT P6SM SCT024 BKN035 BKN040
     FM100000 VRB03KT P6SM SCT060
     FM100100 00000KT 6SM BR SCT040
     FM100800 00000KT 1 1/2SM BR SCT035
     FM100900 00000KT 1/2SM FG VV001=

USA.gov is the U.S. government's official web portal to all federal, state and local government web resources and services.